Gobustan — 9HA2895 — position and weather

sailwx.info

Track history (hours):
 
Tides and Currents Weather Stations Pressure Air Temp Water Temp Dewpoint Dewpoint Depression Visibility Wind Speed Wind Dir Waves Ship Positions

Gobustan

Last reported at 2018-Jun-17 06:28 UTC. Time now 2018-Jun-20 11:33 UTC.
Position N 49°49' W 003°20'.

Length 140 m; draft 4.6 m.

Type: Ship (hazmat cat B). MMSI: 256623000.

Date/timePositionNaut miles runAvg speedWind from/ knotsBaromVisibWave heightAir tempDewpointWater temp
2018-Jun-17 06:28N 49°49' W 003°20'7 7.8
2018-Jun-17 05:34N 49°53' W 003°10'2 8.7
2018-Jun-17 05:21N 49°54' W 003°08'4 9.3
2018-Jun-17 04:58N 49°56' W 003°03'5 9.8
2018-Jun-17 04:29N 49°58' W 002°56'610.4
2018-Jun-17 03:55N 49°60' W 002°48'124 7.8
2018-Jun-16 11:57N 50°35' E 000°18'4 6.3
2018-Jun-16 11:18N 50°37' E 000°24'2 5.9
2018-Jun-16 10:57N 50°37' E 000°27'3 5.8
2018-Jun-16 10:29N 50°38' E 000°32'3 6.1
2018-Jun-16 10:00N 50°39' E 000°36'3 6.8
2018-Jun-16 09:29N 50°41' E 000°40'4 7.8
2018-Jun-16 08:59N 50°43' E 000°45'17 9.6
2018-Jun-16 07:14N 50°53' E 001°07'210.2
2018-Jun-16 07:00N 50°55' E 001°10'610.2
2018-Jun-16 06:28N 50°58' E 001°17'5 9.9
2018-Jun-16 05:59N 51°01' E 001°22'4 9.2
2018-Jun-16 05:30N 51°04' E 001°28'4 8.3
2018-Jun-16 05:00N 51°07' E 001°33'4 7.4
2018-Jun-16 04:30N 51°09' E 001°37'3 6.6
2018-Jun-16 04:00N 51°11' E 001°41'3 6.4
2018-Jun-16 03:30N 51°13' E 001°45'3 6.1
2018-Jun-16 02:59N 51°16' E 001°47'3 5.8
2018-Jun-16 02:30N 51°19' E 001°50'3 5.7
2018-Jun-16 02:00N 51°21' E 001°52'3 6.2
2018-Jun-16 01:30N 51°24' E 001°54'3 6.8
2018-Jun-16 01:00N 51°27' E 001°57'4 7.7
2018-Jun-16 00:30N 51°30' E 002°01'4 8.4
2018-Jun-16 00:00N 51°33' E 002°05'4 8.8
2018-Jun-15 23:30N 51°37' E 002°10'5 9.6
2018-Jun-15 22:58N 51°40' E 002°15'1910.2
2018-Jun-15 21:06N 51°54' E 002°36'210.2
2018-Jun-15 20:53N 51°56' E 002°38'5 9.8
2018-Jun-15 20:24N 51°59' E 002°44'4 8.8
2018-Jun-15 19:58N 52°01' E 002°49'5 8.9
2018-Jun-15 19:28N 52°02' E 002°57'5 8.8
2018-Jun-15 18:54N 52°02' E 003°04'4 8.6
2018-Jun-15 18:29N 52°02' E 003°10'4 8.6
2018-Jun-15 18:00N 52°02' E 003°17'4 8.7
2018-Jun-15 17:29N 52°03' E 003°24'4 7.9
2018-Jun-15 17:00N 52°04' E 003°30'4 7.7
2018-Jun-15 16:30N 52°04' E 003°37'4 7.5
2018-Jun-15 16:00N 52°03' E 003°43'4 7.2
2018-Jun-15 15:31N 52°03' E 003°48'3 6.7
2018-Jun-15 15:00N 52°02' E 003°54'3 6.7
2018-Jun-15 14:30N 52°01' E 003°59'4 7.5
2018-Jun-15 14:00N 51°59' E 004°04'4 8.9
2018-Jun-15 13:30N 51°57' E 004°10'5 9.5
2018-Jun-15 12:59N 51°54' E 004°17'3 5.7
2018-Jun-15 12:28N 51°54' E 004°22'0 0.0
2018-Jun-15 11:52N 51°54' E 004°22'0 0.0
2018-Jun-15 11:19N 51°54' E 004°22'0 0.0
2018-Jun-15 10:55N 51°54' E 004°22'0 0.0
2018-Jun-15 10:25N 51°54' E 004°22'0 0.0
2018-Jun-15 09:58N 51°54' E 004°22'0 0.0
2018-Jun-15 09:13N 51°54' E 004°22'0 0.0
2018-Jun-15 08:58N 51°54' E 004°22'0 0.0
2018-Jun-15 08:28N 51°54' E 004°22'0 0.0
2018-Jun-15 07:52N 51°54' E 004°22'0 0.0
2018-Jun-15 07:10N 51°54' E 004°22'0 0.0
2018-Jun-15 06:22N 51°54' E 004°22'0 0.0
2018-Jun-15 05:58N 51°54' E 004°22'0 0.0
2018-Jun-15 05:28N 51°54' E 004°22'0 0.0
2018-Jun-15 04:55N 51°54' E 004°22'0 0.0
2018-Jun-15 04:28N 51°54' E 004°22'0 0.0
2018-Jun-15 03:55N 51°54' E 004°22'0 0.0
2018-Jun-15 03:28N 51°54' E 004°22'0 0.0
2018-Jun-15 02:58N 51°54' E 004°22'0 0.0
2018-Jun-15 02:28N 51°54' E 004°22'0 0.0
2018-Jun-15 01:55N 51°54' E 004°22'0 0.0
2018-Jun-15 01:25N 51°54' E 004°22'0 0.0
2018-Jun-15 00:58N 51°54' E 004°22'0 0.0
2018-Jun-15 00:28N 51°54' E 004°22'0 0.0
2018-Jun-14 23:55N 51°54' E 004°22'0 0.0
2018-Jun-14 23:28N 51°54' E 004°22'0 0.0
2018-Jun-14 22:58N 51°54' E 004°22'0 0.0
2018-Jun-14 22:25N 51°54' E 004°22'0 0.0
2018-Jun-14 21:58N 51°54' E 004°22'0 0.0
2018-Jun-14 21:28N 51°54' E 004°22'0 0.0
2018-Jun-14 20:55N 51°54' E 004°22'0 0.0
2018-Jun-14 20:28N 51°54' E 004°22'0 0.0
2018-Jun-14 19:58N 51°54' E 004°22'0 0.0
2018-Jun-14 19:28N 51°54' E 004°22'0 0.0
2018-Jun-14 18:58N 51°54' E 004°22'0 0.0
2018-Jun-14 18:28N 51°54' E 004°22'0 0.0
2018-Jun-14 17:58N 51°54' E 004°22'0 0.0
2018-Jun-14 17:28N 51°54' E 004°22'0 0.0
2018-Jun-14 16:58N 51°54' E 004°22'0 0.0
2018-Jun-14 16:28N 51°54' E 004°22'0 0.0
2018-Jun-14 15:58N 51°54' E 004°22'0 0.0
2018-Jun-14 15:25N 51°54' E 004°22'0 0.0
2018-Jun-14 14:58N 51°54' E 004°22'0 0.0
2018-Jun-14 14:28N 51°54' E 004°22'0 0.0
2018-Jun-14 13:58N 51°54' E 004°22'0 0.0
2018-Jun-14 13:28N 51°54' E 004°22'0 0.0
2018-Jun-14 12:52N 51°54' E 004°22'0 0.0
2018-Jun-14 12:25N 51°54' E 004°22'0 0.0
2018-Jun-14 11:55N 51°54' E 004°22'0 0.0
2018-Jun-14 11:28N 51°54' E 004°22'0 0.0
2018-Jun-14 10:58N 51°54' E 004°22'0 0.0
2018-Jun-14 10:13N 51°54' E 004°22'0 0.0
2018-Jun-14 09:58N 51°54' E 004°22'0 0.0
2018-Jun-14 09:28N 51°54' E 004°22'0 0.0
2018-Jun-14 08:55N 51°54' E 004°22'0 0.0
2018-Jun-14 08:25N 51°54' E 004°22'0 0.0
2018-Jun-14 07:55N 51°54' E 004°22'0 0.0
2018-Jun-14 07:28N 51°54' E 004°22'0 0.0
2018-Jun-14 06:58N 51°54' E 004°22'0 0.0
2018-Jun-14 06:28N 51°54' E 004°22'0 0.0
2018-Jun-14 05:58N 51°54' E 004°22'0 0.0
2018-Jun-14 05:28N 51°54' E 004°22'0 0.0
2018-Jun-14 04:55N 51°54' E 004°22'0 0.0
2018-Jun-14 04:22N 51°54' E 004°22'0 0.0
2018-Jun-14 03:55N 51°54' E 004°22'0 0.0
2018-Jun-14 03:28N 51°54' E 004°22'0 0.0
2018-Jun-14 02:58N 51°54' E 004°22'0 0.0
2018-Jun-14 02:25N 51°54' E 004°22'0 0.0
2018-Jun-14 02:00N 51°54' E 004°22'0 0.0
2018-Jun-14 01:30N 51°54' E 004°22'0 0.0
2018-Jun-14 01:00N 51°54' E 004°22'0 0.0
2018-Jun-14 00:30N 51°54' E 004°22'0 0.0
2018-Jun-14 00:00N 51°54' E 004°22'0 0.0
2018-Jun-13 23:30N 51°54' E 004°22'0 0.0
2018-Jun-13 23:00N 51°54' E 004°22'0 0.0
2018-Jun-13 22:30N 51°54' E 004°22'0 0.0
2018-Jun-13 21:59N 51°54' E 004°22'0 0.3
2018-Jun-13 21:30N 51°54' E 004°22'4 7.1
2018-Jun-13 21:00N 51°54' E 004°16'4 7.8
2018-Jun-13 20:29N 51°57' E 004°11'4 7.5
2018-Jun-13 20:00N 51°59' E 004°06'4 7.1
2018-Jun-13 19:31N 51°60' E 004°01'4 8.0
2018-Jun-13 19:01N 52°00' E 003°54'5 8.5
2018-Jun-13 18:27N 51°60' E 003°46'4 8.0
2018-Jun-13 17:58N 51°58' E 003°41'4 7.0
2018-Jun-13 17:27N 51°56' E 003°36'2 1.7
2018-Jun-13 16:28N 51°54' E 003°36'0 0.0
2018-Jun-13 15:52N 51°54' E 003°36'0 0.0
2018-Jun-13 15:07N 51°54' E 003°36'0 0.0
2018-Jun-13 14:34N 51°54' E 003°36'0 0.0
2018-Jun-13 14:28N 51°54' E 003°36'0 0.0
2018-Jun-12 00:31N 51°54' E 003°36'0 0.0
2018-Jun-12 00:22N 51°54' E 003°36'0 0.1
2018-Jun-11 21:19N 51°54' E 003°36'0 0.0
2018-Jun-11 16:13N 51°54' E 003°36'0 0.9
2018-Jun-11 15:56N 51°54' E 003°36'2 4.1
2018-Jun-11 15:30N 51°56' E 003°35'4 6.7
2018-Jun-11 14:58N 51°55' E 003°29'4 7.4
2018-Jun-11 14:29N 51°54' E 003°23'4 7.6
2018-Jun-11 14:00N 51°53' E 003°18'15 8.3
2018-Jun-11 12:12N 51°49' E 002°54'12 8.8
2018-Jun-11 10:52N 51°45' E 002°37'3 9.1
2018-Jun-11 10:30N 51°42' E 002°33'4 8.9
2018-Jun-11 10:00N 51°39' E 002°28'6 8.8
2018-Jun-11 09:20N 51°34' E 002°22'4 9.0
2018-Jun-11 08:56N 51°31' E 002°19'4 9.0
2018-Jun-11 08:27N 51°28' E 002°14'5 8.5
2018-Jun-11 07:53N 51°24' E 002°11'4 8.2
2018-Jun-11 07:27N 51°21' E 002°09'4 7.8
2018-Jun-11 06:56N 51°17' E 002°06'3 7.3
2018-Jun-11 06:29N 51°14' E 002°03'3 6.6
2018-Jun-11 05:59N 51°12' E 001°59'3 6.4
2018-Jun-11 05:29N 51°11' E 001°54'5 6.2
2018-Jun-11 04:42N 51°08' E 001°48'2 6.5
2018-Jun-11 04:24N 51°06' E 001°47'3 6.4
2018-Jun-11 03:59N 51°04' E 001°45'4 9.0
2018-Jun-11 03:30N 51°02' E 001°51'610.9
2018-Jun-11 03:00N 51°02' E 001°60'510.5
2018-Jun-11 02:29N 51°03' E 002°08'510.6
2018-Jun-11 01:58N 51°04' E 002°17'3 5.6
2018-Jun-11 01:26N 51°03' E 002°21'0 0.2
2018-Jun-10 23:55N 51°03' E 002°21'0 0.0
2018-Jun-10 23:25N 51°03' E 002°21'0 0.0
2018-Jun-10 22:58N 51°03' E 002°21'0 0.0
2018-Jun-10 22:28N 51°03' E 002°21'0 0.0
2018-Jun-10 21:43N 51°03' E 002°21'0 0.0
2018-Jun-10 21:28N 51°03' E 002°21'0 0.0
2018-Jun-10 20:43N 51°03' E 002°21'0 0.0
2018-Jun-10 19:19N 51°03' E 002°21'0 0.0
2018-Jun-10 18:58N 51°03' E 002°21'0 0.0
2018-Jun-10 18:22N 51°03' E 002°21'0 0.0
2018-Jun-10 17:52N 51°03' E 002°21'0 0.0
2018-Jun-10 17:28N 51°03' E 002°21'0 0.0
2018-Jun-10 16:49N 51°03' E 002°21'0 0.0
2018-Jun-10 16:28N 51°03' E 002°21'0 0.0
2018-Jun-10 15:52N 51°03' E 002°21'0 0.0
2018-Jun-10 14:43N 51°03' E 002°21'0 0.0
2018-Jun-10 13:58N 51°03' E 002°21'0 0.0
2018-Jun-10 12:58N 51°03' E 002°21'0 0.0
2018-Jun-10 11:49N 51°03' E 002°21'0 0.0
2018-Jun-10 10:55N 51°03' E 002°21'0 0.0
2018-Jun-10 09:34N 51°03' E 002°21'0 0.0
2018-Jun-10 09:28N 51°03' E 002°21'0 0.0
2018-Jun-10 08:13N 51°03' E 002°21'0 0.0
2018-Jun-10 07:55N 51°03' E 002°21'0 0.0
2018-Jun-10 07:28N 51°03' E 002°21'0 0.0
2018-Jun-10 06:55N 51°03' E 002°21'0 0.0
2018-Jun-10 06:22N 51°03' E 002°21'0 0.0
2018-Jun-10 04:37N 51°03' E 002°21'0 0.0
2018-Jun-10 04:16N 51°03' E 002°21'0 0.0
2018-Jun-10 03:43N 51°03' E 002°21'0 0.0
2018-Jun-10 02:37N 51°03' E 002°21'0 0.0
2018-Jun-10 01:22N 51°03' E 002°21'0 0.0
2018-Jun-09 23:37N 51°03' E 002°21'0 0.0
2018-Jun-09 23:19N 51°03' E 002°21'0 0.0
2018-Jun-09 22:55N 51°03' E 002°21'0 0.0
2018-Jun-09 22:25N 51°03' E 002°21'0 0.0
2018-Jun-09 21:55N 51°03' E 002°21'0 0.0
2018-Jun-09 21:13N 51°03' E 002°21'0 0.0
2018-Jun-09 20:46N 51°03' E 002°21'0 0.0
2018-Jun-09 20:19N 51°03' E 002°21'0 0.1
2018-Jun-09 18:48N 51°03' E 002°21'1 2.0
2018-Jun-09 18:30N 51°03' E 002°20'1 1.2
2018-Jun-09 18:01N 51°04' E 002°21'9 8.5
2018-Jun-09 16:57N 51°03' E 002°07'4 7.7
2018-Jun-09 16:28N 51°02' E 002°01'3 7.1
2018-Jun-09 16:00N 51°02' E 001°56'4 7.0
2018-Jun-09 15:28N 51°02' E 001°50'82 7.4
2018-Jun-09 04:25N 50°18' E 000°02'4 9.4
2018-Jun-09 03:59N 50°17' W 000°04'5 9.5
2018-Jun-09 03:26N 50°16' W 000°12'4 9.5
2018-Jun-09 03:00N 50°15' W 000°18'5 9.5
2018-Jun-09 02:29N 50°14' W 000°26'5 9.3
2018-Jun-09 01:59N 50°12' W 000°33'4 9.0
2018-Jun-09 01:30N 50°11' W 000°39'4 8.7
2018-Jun-09 01:00N 50°10' W 000°46'5 8.3
2018-Jun-09 00:26N 50°09' W 000°53'3 7.9
2018-Jun-09 00:00N 50°08' W 000°58'5 7.4
2018-Jun-08 23:19N 50°07' W 001°06'2 7.3
2018-Jun-08 23:00N 50°06' W 001°09'3 7.1
2018-Jun-08 22:30N 50°05' W 001°14'3 6.8
2018-Jun-08 22:00N 50°04' W 001°20'3 6.4
2018-Jun-08 21:31N 50°03' W 001°24'3 6.5
2018-Jun-08 21:00N 50°02' W 001°29'3 6.6
2018-Jun-08 20:31N 50°02' W 001°34'3 6.7
2018-Jun-08 20:00N 50°01' W 001°39'4 7.1
2018-Jun-08 19:30N 49°60' W 001°45'4 7.6
2018-Jun-08 19:01N 49°59' W 001°50'4 8.2
2018-Jun-08 18:31N 49°57' W 001°56'8 8.7
2018-Jun-08 17:37N 49°56' W 002°08'170 7.5
2018-Jun-07 18:53N 48°01' W 005°19'61 8.8
2018-Jun-07 12:02N 47°17' W 004°18'0 8.5
2018-Jun-07 12:01N 47°17' W 004°18'6 8.5
2018-Jun-07 11:20N 47°13' W 004°12'4 8.7
2018-Jun-07 10:50N 47°09' W 004°08'3 8.8
2018-Jun-07 10:29N 47°07' W 004°05'4 8.8
2018-Jun-07 10:00N 47°04' W 004°01'  
Track history (hours):
 
Tides and Currents Weather Stations Pressure Air Temp Water Temp Dewpoint Dewpoint Depression Visibility Wind Speed Wind Dir Waves Ship Positions

Gobustan

Last reported at 2018-Jun-17 06:28 UTC. Time now 2018-Jun-20 11:33 UTC.
Position N 49°49' W 003°20'.

Length 140 m; draft 4.6 m.

Type: Ship (hazmat cat B). MMSI: 256623000.

Date/timePositionNaut miles runAvg speedWind from/ knotsBaromVisibWave heightAir tempDewpointWater temp
2018-Jun-17 06:28N 49°49' W 003°20'7 7.8
2018-Jun-17 05:34N 49°53' W 003°10'2 8.7
2018-Jun-17 05:21N 49°54' W 003°08'4 9.3
2018-Jun-17 04:58N 49°56' W 003°03'5 9.8
2018-Jun-17 04:29N 49°58' W 002°56'610.4
2018-Jun-17 03:55N 49°60' W 002°48'124 7.8
2018-Jun-16 11:57N 50°35' E 000°18'4 6.3
2018-Jun-16 11:18N 50°37' E 000°24'2 5.9
2018-Jun-16 10:57N 50°37' E 000°27'3 5.8
2018-Jun-16 10:29N 50°38' E 000°32'3 6.1
2018-Jun-16 10:00N 50°39' E 000°36'3 6.8
2018-Jun-16 09:29N 50°41' E 000°40'4 7.8
2018-Jun-16 08:59N 50°43' E 000°45'17 9.6
2018-Jun-16 07:14N 50°53' E 001°07'210.2
2018-Jun-16 07:00N 50°55' E 001°10'610.2
2018-Jun-16 06:28N 50°58' E 001°17'5 9.9
2018-Jun-16 05:59N 51°01' E 001°22'4 9.2
2018-Jun-16 05:30N 51°04' E 001°28'4 8.3
2018-Jun-16 05:00N 51°07' E 001°33'4 7.4
2018-Jun-16 04:30N 51°09' E 001°37'3 6.6
2018-Jun-16 04:00N 51°11' E 001°41'3 6.4
2018-Jun-16 03:30N 51°13' E 001°45'3 6.1
2018-Jun-16 02:59N 51°16' E 001°47'3 5.8
2018-Jun-16 02:30N 51°19' E 001°50'3 5.7
2018-Jun-16 02:00N 51°21' E 001°52'3 6.2
2018-Jun-16 01:30N 51°24' E 001°54'3 6.8
2018-Jun-16 01:00N 51°27' E 001°57'4 7.7
2018-Jun-16 00:30N 51°30' E 002°01'4 8.4
2018-Jun-16 00:00N 51°33' E 002°05'4 8.8
2018-Jun-15 23:30N 51°37' E 002°10'5 9.6
2018-Jun-15 22:58N 51°40' E 002°15'1910.2
2018-Jun-15 21:06N 51°54' E 002°36'210.2
2018-Jun-15 20:53N 51°56' E 002°38'5 9.8
2018-Jun-15 20:24N 51°59' E 002°44'4 8.8
2018-Jun-15 19:58N 52°01' E 002°49'5 8.9
2018-Jun-15 19:28N 52°02' E 002°57'5 8.8
2018-Jun-15 18:54N 52°02' E 003°04'4 8.6
2018-Jun-15 18:29N 52°02' E 003°10'4 8.6
2018-Jun-15 18:00N 52°02' E 003°17'4 8.7
2018-Jun-15 17:29N 52°03' E 003°24'4 7.9
2018-Jun-15 17:00N 52°04' E 003°30'4 7.7
2018-Jun-15 16:30N 52°04' E 003°37'4 7.5
2018-Jun-15 16:00N 52°03' E 003°43'4 7.2
2018-Jun-15 15:31N 52°03' E 003°48'3 6.7
2018-Jun-15 15:00N 52°02' E 003°54'3 6.7
2018-Jun-15 14:30N 52°01' E 003°59'4 7.5
2018-Jun-15 14:00N 51°59' E 004°04'4 8.9
2018-Jun-15 13:30N 51°57' E 004°10'5 9.5
2018-Jun-15 12:59N 51°54' E 004°17'3 5.7
2018-Jun-15 12:28N 51°54' E 004°22'0 0.0
2018-Jun-15 11:52N 51°54' E 004°22'0 0.0
2018-Jun-15 11:19N 51°54' E 004°22'0 0.0
2018-Jun-15 10:55N 51°54' E 004°22'0 0.0
2018-Jun-15 10:25N 51°54' E 004°22'0 0.0
2018-Jun-15 09:58N 51°54' E 004°22'0 0.0
2018-Jun-15 09:13N 51°54' E 004°22'0 0.0
2018-Jun-15 08:58N 51°54' E 004°22'0 0.0
2018-Jun-15 08:28N 51°54' E 004°22'0 0.0
2018-Jun-15 07:52N 51°54' E 004°22'0 0.0
2018-Jun-15 07:10N 51°54' E 004°22'0 0.0
2018-Jun-15 06:22N 51°54' E 004°22'0 0.0
2018-Jun-15 05:58N 51°54' E 004°22'0 0.0
2018-Jun-15 05:28N 51°54' E 004°22'0 0.0
2018-Jun-15 04:55N 51°54' E 004°22'0 0.0
2018-Jun-15 04:28N 51°54' E 004°22'0 0.0
2018-Jun-15 03:55N 51°54' E 004°22'0 0.0
2018-Jun-15 03:28N 51°54' E 004°22'0 0.0
2018-Jun-15 02:58N 51°54' E 004°22'0 0.0
2018-Jun-15 02:28N 51°54' E 004°22'0 0.0
2018-Jun-15 01:55N 51°54' E 004°22'0 0.0
2018-Jun-15 01:25N 51°54' E 004°22'0 0.0
2018-Jun-15 00:58N 51°54' E 004°22'0 0.0
2018-Jun-15 00:28N 51°54' E 004°22'0 0.0
2018-Jun-14 23:55N 51°54' E 004°22'0 0.0
2018-Jun-14 23:28N 51°54' E 004°22'0 0.0
2018-Jun-14 22:58N 51°54' E 004°22'0 0.0
2018-Jun-14 22:25N 51°54' E 004°22'0 0.0
2018-Jun-14 21:58N 51°54' E 004°22'0 0.0
2018-Jun-14 21:28N 51°54' E 004°22'0 0.0
2018-Jun-14 20:55N 51°54' E 004°22'0 0.0
2018-Jun-14 20:28N 51°54' E 004°22'0 0.0
2018-Jun-14 19:58N 51°54' E 004°22'0 0.0
2018-Jun-14 19:28N 51°54' E 004°22'0 0.0
2018-Jun-14 18:58N 51°54' E 004°22'0 0.0
2018-Jun-14 18:28N 51°54' E 004°22'0 0.0
2018-Jun-14 17:58N 51°54' E 004°22'0 0.0
2018-Jun-14 17:28N 51°54' E 004°22'0 0.0
2018-Jun-14 16:58N 51°54' E 004°22'0 0.0
2018-Jun-14 16:28N 51°54' E 004°22'0 0.0
2018-Jun-14 15:58N 51°54' E 004°22'0 0.0
2018-Jun-14 15:25N 51°54' E 004°22'0 0.0
2018-Jun-14 14:58N 51°54' E 004°22'0 0.0
2018-Jun-14 14:28N 51°54' E 004°22'0 0.0
2018-Jun-14 13:58N 51°54' E 004°22'0 0.0
2018-Jun-14 13:28N 51°54' E 004°22'0 0.0
2018-Jun-14 12:52N 51°54' E 004°22'0 0.0
2018-Jun-14 12:25N 51°54' E 004°22'0 0.0
2018-Jun-14 11:55N 51°54' E 004°22'0 0.0
2018-Jun-14 11:28N 51°54' E 004°22'0 0.0
2018-Jun-14 10:58N 51°54' E 004°22'0 0.0
2018-Jun-14 10:13N 51°54' E 004°22'0 0.0
2018-Jun-14 09:58N 51°54' E 004°22'0 0.0
2018-Jun-14 09:28N 51°54' E 004°22'0 0.0
2018-Jun-14 08:55N 51°54' E 004°22'0 0.0
2018-Jun-14 08:25N 51°54' E 004°22'0 0.0
2018-Jun-14 07:55N 51°54' E 004°22'0 0.0
2018-Jun-14 07:28N 51°54' E 004°22'0 0.0
2018-Jun-14 06:58N 51°54' E 004°22'0 0.0
2018-Jun-14 06:28N 51°54' E 004°22'0 0.0
2018-Jun-14 05:58N 51°54' E 004°22'0 0.0
2018-Jun-14 05:28N 51°54' E 004°22'0 0.0
2018-Jun-14 04:55N 51°54' E 004°22'0 0.0
2018-Jun-14 04:22N 51°54' E 004°22'0 0.0
2018-Jun-14 03:55N 51°54' E 004°22'0 0.0
2018-Jun-14 03:28N 51°54' E 004°22'0 0.0
2018-Jun-14 02:58N 51°54' E 004°22'0 0.0
2018-Jun-14 02:25N 51°54' E 004°22'0 0.0
2018-Jun-14 02:00N 51°54' E 004°22'0 0.0
2018-Jun-14 01:30N 51°54' E 004°22'0 0.0
2018-Jun-14 01:00N 51°54' E 004°22'0 0.0
2018-Jun-14 00:30N 51°54' E 004°22'0 0.0
2018-Jun-14 00:00N 51°54' E 004°22'0 0.0
2018-Jun-13 23:30N 51°54' E 004°22'0 0.0
2018-Jun-13 23:00N 51°54' E 004°22'0 0.0
2018-Jun-13 22:30N 51°54' E 004°22'0 0.0
2018-Jun-13 21:59N 51°54' E 004°22'0 0.3
2018-Jun-13 21:30N 51°54' E 004°22'4 7.1
2018-Jun-13 21:00N 51°54' E 004°16'4 7.8
2018-Jun-13 20:29N 51°57' E 004°11'4 7.5
2018-Jun-13 20:00N 51°59' E 004°06'4 7.1
2018-Jun-13 19:31N 51°60' E 004°01'4 8.0
2018-Jun-13 19:01N 52°00' E 003°54'5 8.5
2018-Jun-13 18:27N 51°60' E 003°46'4 8.0
2018-Jun-13 17:58N 51°58' E 003°41'4 7.0
2018-Jun-13 17:27N 51°56' E 003°36'2 1.7
2018-Jun-13 16:28N 51°54' E 003°36'0 0.0
2018-Jun-13 15:52N 51°54' E 003°36'0 0.0
2018-Jun-13 15:07N 51°54' E 003°36'0 0.0
2018-Jun-13 14:34N 51°54' E 003°36'0 0.0
2018-Jun-13 14:28N 51°54' E 003°36'0 0.0
2018-Jun-12 00:31N 51°54' E 003°36'0 0.0
2018-Jun-12 00:22N 51°54' E 003°36'0 0.1
2018-Jun-11 21:19N 51°54' E 003°36'0 0.0
2018-Jun-11 16:13N 51°54' E 003°36'0 0.9
2018-Jun-11 15:56N 51°54' E 003°36'2 4.1
2018-Jun-11 15:30N 51°56' E 003°35'4 6.7
2018-Jun-11 14:58N 51°55' E 003°29'4 7.4
2018-Jun-11 14:29N 51°54' E 003°23'4 7.6
2018-Jun-11 14:00N 51°53' E 003°18'15 8.3
2018-Jun-11 12:12N 51°49' E 002°54'12 8.8
2018-Jun-11 10:52N 51°45' E 002°37'3 9.1
2018-Jun-11 10:30N 51°42' E 002°33'4 8.9
2018-Jun-11 10:00N 51°39' E 002°28'6 8.8
2018-Jun-11 09:20N 51°34' E 002°22'4 9.0
2018-Jun-11 08:56N 51°31' E 002°19'4 9.0
2018-Jun-11 08:27N 51°28' E 002°14'5 8.5
2018-Jun-11 07:53N 51°24' E 002°11'4 8.2
2018-Jun-11 07:27N 51°21' E 002°09'4 7.8
2018-Jun-11 06:56N 51°17' E 002°06'3 7.3
2018-Jun-11 06:29N 51°14' E 002°03'3 6.6
2018-Jun-11 05:59N 51°12' E 001°59'3 6.4
2018-Jun-11 05:29N 51°11' E 001°54'5 6.2
2018-Jun-11 04:42N 51°08' E 001°48'2 6.5
2018-Jun-11 04:24N 51°06' E 001°47'3 6.4
2018-Jun-11 03:59N 51°04' E 001°45'4 9.0
2018-Jun-11 03:30N 51°02' E 001°51'610.9
2018-Jun-11 03:00N 51°02' E 001°60'510.5
2018-Jun-11 02:29N 51°03' E 002°08'510.6
2018-Jun-11 01:58N 51°04' E 002°17'3 5.6
2018-Jun-11 01:26N 51°03' E 002°21'0 0.2
2018-Jun-10 23:55N 51°03' E 002°21'0 0.0
2018-Jun-10 23:25N 51°03' E 002°21'0 0.0
2018-Jun-10 22:58N 51°03' E 002°21'0 0.0
2018-Jun-10 22:28N 51°03' E 002°21'0 0.0
2018-Jun-10 21:43N 51°03' E 002°21'0 0.0
2018-Jun-10 21:28N 51°03' E 002°21'0 0.0
2018-Jun-10 20:43N 51°03' E 002°21'0 0.0
2018-Jun-10 19:19N 51°03' E 002°21'0 0.0
2018-Jun-10 18:58N 51°03' E 002°21'0 0.0
2018-Jun-10 18:22N 51°03' E 002°21'0 0.0
2018-Jun-10 17:52N 51°03' E 002°21'0 0.0
2018-Jun-10 17:28N 51°03' E 002°21'0 0.0
2018-Jun-10 16:49N 51°03' E 002°21'0 0.0
2018-Jun-10 16:28N 51°03' E 002°21'0 0.0
2018-Jun-10 15:52N 51°03' E 002°21'0 0.0
2018-Jun-10 14:43N 51°03' E 002°21'0 0.0
2018-Jun-10 13:58N 51°03' E 002°21'0 0.0
2018-Jun-10 12:58N 51°03' E 002°21'0 0.0
2018-Jun-10 11:49N 51°03' E 002°21'0 0.0
2018-Jun-10 10:55N 51°03' E 002°21'0 0.0
2018-Jun-10 09:34N 51°03' E 002°21'0 0.0
2018-Jun-10 09:28N 51°03' E 002°21'0 0.0
2018-Jun-10 08:13N 51°03' E 002°21'0 0.0
2018-Jun-10 07:55N 51°03' E 002°21'0 0.0
2018-Jun-10 07:28N 51°03' E 002°21'0 0.0
2018-Jun-10 06:55N 51°03' E 002°21'0 0.0
2018-Jun-10 06:22N 51°03' E 002°21'0 0.0
2018-Jun-10 04:37N 51°03' E 002°21'0 0.0
2018-Jun-10 04:16N 51°03' E 002°21'0 0.0
2018-Jun-10 03:43N 51°03' E 002°21'0 0.0
2018-Jun-10 02:37N 51°03' E 002°21'0 0.0
2018-Jun-10 01:22N 51°03' E 002°21'0 0.0
2018-Jun-09 23:37N 51°03' E 002°21'0 0.0
2018-Jun-09 23:19N 51°03' E 002°21'0 0.0
2018-Jun-09 22:55N 51°03' E 002°21'0 0.0
2018-Jun-09 22:25N 51°03' E 002°21'0 0.0
2018-Jun-09 21:55N 51°03' E 002°21'0 0.0
2018-Jun-09 21:13N 51°03' E 002°21'0 0.0
2018-Jun-09 20:46N 51°03' E 002°21'0 0.0
2018-Jun-09 20:19N 51°03' E 002°21'0 0.1
2018-Jun-09 18:48N 51°03' E 002°21'1 2.0
2018-Jun-09 18:30N 51°03' E 002°20'1 1.2
2018-Jun-09 18:01N 51°04' E 002°21'9 8.5
2018-Jun-09 16:57N 51°03' E 002°07'4 7.7
2018-Jun-09 16:28N 51°02' E 002°01'3 7.1
2018-Jun-09 16:00N 51°02' E 001°56'4 7.0
2018-Jun-09 15:28N 51°02' E 001°50'82 7.4
2018-Jun-09 04:25N 50°18' E 000°02'4 9.4
2018-Jun-09 03:59N 50°17' W 000°04'5 9.5
2018-Jun-09 03:26N 50°16' W 000°12'4 9.5
2018-Jun-09 03:00N 50°15' W 000°18'5 9.5
2018-Jun-09 02:29N 50°14' W 000°26'5 9.3
2018-Jun-09 01:59N 50°12' W 000°33'4 9.0
2018-Jun-09 01:30N 50°11' W 000°39'4 8.7
2018-Jun-09 01:00N 50°10' W 000°46'5 8.3
2018-Jun-09 00:26N 50°09' W 000°53'3 7.9
2018-Jun-09 00:00N 50°08' W 000°58'5 7.4
2018-Jun-08 23:19N 50°07' W 001°06'2 7.3
2018-Jun-08 23:00N 50°06' W 001°09'3 7.1
2018-Jun-08 22:30N 50°05' W 001°14'3 6.8
2018-Jun-08 22:00N 50°04' W 001°20'3 6.4
2018-Jun-08 21:31N 50°03' W 001°24'3 6.5
2018-Jun-08 21:00N 50°02' W 001°29'3 6.6
2018-Jun-08 20:31N 50°02' W 001°34'3 6.7
2018-Jun-08 20:00N 50°01' W 001°39'4 7.1
2018-Jun-08 19:30N 49°60' W 001°45'4 7.6
2018-Jun-08 19:01N 49°59' W 001°50'4 8.2
2018-Jun-08 18:31N 49°57' W 001°56'8 8.7
2018-Jun-08 17:37N 49°56' W 002°08'170 7.5
2018-Jun-07 18:53N 48°01' W 005°19'61 8.8
2018-Jun-07 12:02N 47°17' W 004°18'0 8.5
2018-Jun-07 12:01N 47°17' W 004°18'6 8.5
2018-Jun-07 11:20N 47°13' W 004°12'4 8.7
2018-Jun-07 10:50N 47°09' W 004°08'3 8.8
2018-Jun-07 10:29N 47°07' W 004°05'4 8.8
2018-Jun-07 10:00N 47°04' W 004°01'  

Dump ship's entire track history